Time;durP1;ratioP1;P1;durP2;ratioP2;P2;SDS_P1;SDS_P2;PMS_P1;PMS_P2;Temp;Humidity;BMP_temperature;BMP_pressure;BME280_temperature;BME280_humidity;BME280_pressure;Samples;Min_cycle;Max_cycle;Signal;HPM_P1;HPM_P2
2023/02/14 00:01:31;;;;;;;;;;;0.70;77.60;;;;;;5003839;28;88979;-37
2023/02/14 00:03:59;;;;;;;;;;;0.70;77.70;;;;;;5005422;28;89428;-37
2023/02/14 00:06:25;;;;;;;;;;;0.70;77.80;;;;;;5002222;28;88841;-38
2023/02/14 00:08:52;;;;;;;;;;;0.70;77.70;;;;;;5001955;28;90758;-37
2023/02/14 00:11:18;;;;;;;;;;;0.70;77.70;;;;;;5003035;28;87106;-38
2023/02/14 00:15:20;;;;;;;;;;;0.70;77.70;;;;;;5002924;28;89133;-37
2023/02/14 00:16:29;;;;;;;;;;;0.70;77.70;;;;;;5002615;28;88661;-38
2023/02/14 00:19:04;;;;;;;;;;;0.70;77.80;;;;;;5002901;28;87147;-38
2023/02/14 00:21:30;;;;;;;;;;;0.70;77.70;;;;;;5003007;28;88795;-38
2023/02/14 00:23:56;;;;;;;;;;;0.70;77.60;;;;;;5002452;28;88231;-38
2023/02/14 00:26:21;;;;;;;;;;;0.70;77.70;;;;;;5005959;28;86283;-37
2023/02/14 00:28:47;;;;;;;;;;;0.70;77.70;;;;;;5002380;28;89436;-37
2023/02/14 00:31:13;;;;;;;;;;;0.70;77.70;;;;;;5002529;28;87144;-38
2023/02/14 00:33:38;;;;;;;;;;;0.70;77.60;;;;;;5001872;28;88901;-38
2023/02/14 00:36:05;;;;;;;;;;;0.70;77.70;;;;;;5002474;28;89207;-38
2023/02/14 00:38:31;;;;;;;;;;;0.60;77.60;;;;;;5002604;28;87003;-37
2023/02/14 00:40:57;;;;;;;;;;;0.60;77.80;;;;;;5002722;28;87473;-38
2023/02/14 00:43:22;;;;;;;;;;;0.60;77.80;;;;;;5001864;28;89209;-38
2023/02/14 00:45:48;;;;;;;;;;;0.60;77.70;;;;;;5005594;28;87092;-37
2023/02/14 00:48:13;;;;;;;;;;;0.60;77.70;;;;;;5001865;28;89490;-37
2023/02/14 00:50:39;;;;;;;;;;;0.60;77.80;;;;;;5002783;28;86798;-38
2023/02/14 00:53:04;;;;;;;;;;;0.60;77.70;;;;;;5002733;28;87007;-37
2023/02/14 00:55:30;;;;;;;;;;;0.60;77.70;;;;;;5002482;28;88181;-37
2023/02/14 00:57:55;;;;;;;;;;;0.60;77.70;;;;;;5004229;28;88219;-37
2023/02/14 01:00:21;;;;;;;;;;;0.60;77.60;;;;;;5008831;28;89584;-37
2023/02/14 01:02:46;;;;;;;;;;;0.60;77.60;;;;;;5008610;28;89850;-37
2023/02/14 01:05:12;;;;;;;;;;;0.60;77.70;;;;;;5008277;28;87202;-38
2023/02/14 01:07:37;;;;;;;;;;;0.60;77.70;;;;;;5011291;28;89257;-38
2023/02/14 01:10:03;;;;;;;;;;;0.60;77.60;;;;;;5008836;28;87120;-38
2023/02/14 01:12:29;;;;;;;;;;;0.50;77.50;;;;;;5008827;28;88979;-37
2023/02/14 01:14:54;;;;;;;;;;;0.50;77.60;;;;;;5008924;28;88802;-38
2023/02/14 01:17:20;;;;;;;;;;;0.50;77.90;;;;;;5008814;28;87179;-37
2023/02/14 01:19:45;;;;;;;;;;;0.50;77.70;;;;;;5008673;28;87494;-38
2023/02/14 01:22:11;;;;;;;;;;;0.50;77.60;;;;;;5007487;28;89993;-38
2023/02/14 01:24:36;;;;;;;;;;;0.50;77.70;;;;;;5008690;28;87085;-38
2023/02/14 01:27:02;;;;;;;;;;;0.60;77.70;;;;;;5008624;28;88849;-38
2023/02/14 01:29:28;;;;;;;;;;;0.50;77.70;;;;;;5011515;28;87988;-37
2023/02/14 01:31:53;;;;;;;;;;;0.50;77.50;;;;;;5008616;28;88120;-38
2023/02/14 01:34:19;;;;;;;;;;;0.50;77.60;;;;;;5008097;28;89258;-38
2023/02/14 01:36:44;;;;;;;;;;;0.50;77.40;;;;;;5008487;28;87261;-37
2023/02/14 01:39:12;;;;;;;;;;;0.50;77.60;;;;;;5008922;28;88740;-38
2023/02/14 01:41:40;;;;;;;;;;;0.50;77.50;;;;;;5008150;28;89460;-37
2023/02/14 01:44:05;;;;;;;;;;;0.50;77.70;;;;;;5008191;28;87131;-37
2023/02/14 01:46:35;;;;;;;;;;;0.50;77.70;;;;;;5007695;28;88881;-38
2023/02/14 01:49:01;;;;;;;;;;;0.50;77.70;;;;;;5007881;28;89193;-38
2023/02/14 01:51:27;;;;;;;;;;;0.50;77.70;;;;;;5011256;28;87152;-38
2023/02/14 01:53:53;;;;;;;;;;;0.50;77.60;;;;;;5007826;28;88512;-38
2023/02/14 01:56:22;;;;;;;;;;;0.50;77.60;;;;;;5008254;28;87099;-38
2023/02/14 01:58:49;;;;;;;;;;;0.50;77.70;;;;;;5008281;28;87486;-38
2023/02/14 02:01:16;;;;;;;;;;;0.50;77.60;;;;;;5007988;28;88349;-38
2023/02/14 02:03:50;;;;;;;;;;;0.40;77.70;;;;;;5008292;28;86270;-37
2023/02/14 02:06:19;;;;;;;;;;;0.40;77.60;;;;;;5007817;28;88293;-37
2023/02/14 02:08:50;;;;;;;;;;;0.50;77.70;;;;;;5007060;28;88447;-37
2023/02/14 02:11:16;;;;;;;;;;;0.40;77.70;;;;;;5004008;28;87984;-37
2023/02/14 02:13:41;;;;;;;;;;;0.40;77.70;;;;;;5007547;28;88444;-37
2023/02/14 02:16:13;;;;;;;;;;;0.40;77.70;;;;;;5004798;28;87092;-38
2023/02/14 02:18:55;;;;;;;;;;;0.50;77.70;;;;;;5004814;28;88730;-38
2023/02/14 02:21:23;;;;;;;;;;;0.40;77.60;;;;;;5004561;28;88068;-37
2023/02/14 02:23:53;;;;;;;;;;;0.40;77.70;;;;;;5004871;28;87100;-37
2023/02/14 02:26:25;;;;;;;;;;;0.40;77.70;;;;;;5004461;28;88796;-38
2023/02/14 02:28:53;;;;;;;;;;;0.40;77.80;;;;;;5004267;28;88440;-38
2023/02/14 02:31:18;;;;;;;;;;;0.40;77.70;;;;;;5004528;28;87138;-37
2023/02/14 02:34:02;;;;;;;;;;;0.40;77.80;;;;;;5007055;28;88642;-38
2023/02/14 02:36:40;;;;;;;;;;;0.40;77.80;;;;;;5003770;28;88114;-38
2023/02/14 02:39:08;;;;;;;;;;;0.40;77.80;;;;;;5004431;28;87347;-37
2023/02/14 02:41:34;;;;;;;;;;;0.40;77.80;;;;;;5004149;28;88030;-38
2023/02/14 02:44:12;;;;;;;;;;;0.40;77.80;;;;;;5004295;28;87479;-37
2023/02/14 02:46:48;;;;;;;;;;;0.40;77.80;;;;;;5004278;28;89091;-37
2023/02/14 02:53:01;;;;;;;;;;;0.40;77.90;;;;;;5003909;28;89387;-37
2023/02/14 02:55:26;;;;;;;;;;;0.40;77.90;;;;;;5004555;28;86620;-37
2023/02/14 02:57:52;;;;;;;;;;;0.40;77.90;;;;;;5006610;28;88243;-37
2023/02/14 03:00:19;;;;;;;;;;;0.40;77.90;;;;;;5004007;28;88773;-38
2023/02/14 03:05:32;;;;;;;;;;;0.40;77.90;;;;;;5004087;28;86898;-38
2023/02/14 03:07:57;;;;;;;;;;;0.40;77.70;;;;;;5004066;28;88487;-38
2023/02/14 03:10:28;;;;;;;;;;;0.40;77.90;;;;;;5003601;28;89552;-37
2023/02/14 03:13:13;;;;;;;;;;;0.40;77.90;;;;;;5003841;28;87091;-37
2023/02/14 03:15:44;;;;;;;;;;;0.40;77.90;;;;;;5003796;28;88861;-38
2023/02/14 03:21:38;;;;;;;;;;;0.40;78.00;;;;;;5004692;28;86271;-38
2023/02/14 03:24:09;;;;;;;;;;;0.30;78.10;;;;;;4995112;28;89358;-38
2023/02/14 03:26:43;;;;;;;;;;;0.30;78.10;;;;;;5003657;28;87654;-37
2023/02/14 03:29:12;;;;;;;;;;;0.40;78.10;;;;;;5003075;28;88684;-37
2023/02/14 03:31:57;;;;;;;;;;;0.30;78.20;;;;;;5003074;28;89277;-38
2023/02/14 03:34:29;;;;;;;;;;;0.40;78.10;;;;;;5003450;28;87182;-37
2023/02/14 03:37:14;;;;;;;;;;;0.40;78.00;;;;;;5003620;28;87784;-37
2023/02/14 03:39:49;;;;;;;;;;;0.40;78.10;;;;;;5003211;28;88119;-37
2023/02/14 03:42:17;;;;;;;;;;;0.40;78.10;;;;;;5003701;28;87523;-38
2023/02/14 03:44:43;;;;;;;;;;;0.40;78.20;;;;;;5006089;28;86990;-37
2023/02/14 03:47:11;;;;;;;;;;;0.30;78.10;;;;;;5003819;28;86413;-38
2023/02/14 03:49:40;;;;;;;;;;;0.40;78.10;;;;;;5003488;28;87040;-38
2023/02/14 03:52:07;;;;;;;;;;;0.30;78.10;;;;;;5002723;28;89437;-38
2023/02/14 03:54:33;;;;;;;;;;;0.30;78.20;;;;;;5002272;28;88360;-37
2023/02/14 03:57:01;;;;;;;;;;;0.30;78.70;;;;;;5003092;28;89754;-38
2023/02/14 03:59:28;;;;;;;;;;;0.30;78.20;;;;;;5002994;28;89434;-38
2023/02/14 04:01:55;;;;;;;;;;;0.30;78.20;;;;;;5003104;28;87135;-38
2023/02/14 04:04:23;;;;;;;;;;;0.30;78.20;;;;;;5003095;28;88907;-38
2023/02/14 04:06:48;;;;;;;;;;;0.30;78.20;;;;;;5005156;28;89743;-38
2023/02/14 04:09:14;;;;;;;;;;;0.30;78.10;;;;;;5003112;28;87498;-38
2023/02/14 04:11:39;;;;;;;;;;;0.30;78.20;;;;;;5003090;28;87968;-37
2023/02/14 04:14:05;;;;;;;;;;;0.30;78.10;;;;;;5003308;28;87060;-38
2023/02/14 04:19:21;;;;;;;;;;;0.30;78.20;;;;;;5002916;28;88940;-38
2023/02/14 04:19:22;;;;;;;;;;;0.30;78.20;;;;;;5002062;28;89814;-37
2023/02/14 04:21:48;;;;;;;;;;;0.30;78.30;;;;;;5002704;28;87430;-38
2023/02/14 04:24:14;;;;;;;;;;;0.30;78.20;;;;;;5002803;28;89033;-37
2023/02/14 04:26:52;;;;;;;;;;;0.30;78.10;;;;;;5002379;28;89568;-38
2023/02/14 04:29:21;;;;;;;;;;;0.30;78.20;;;;;;5005823;28;86968;-37
2023/02/14 04:31:47;;;;;;;;;;;0.30;78.20;;;;;;5002231;28;89296;-38
2023/02/14 04:34:12;;;;;;;;;;;0.30;78.20;;;;;;5001952;28;87144;-38
2023/02/14 04:36:38;;;;;;;;;;;0.30;78.30;;;;;;5003111;28;88707;-38
2023/02/14 04:39:03;;;;;;;;;;;0.30;78.30;;;;;;5002090;28;88246;-38
2023/02/14 04:41:29;;;;;;;;;;;0.30;78.20;;;;;;5002448;28;86989;-37
2023/02/14 04:43:54;;;;;;;;;;;0.30;78.30;;;;;;5001609;28;88573;-38
2023/02/14 04:46:20;;;;;;;;;;;0.30;78.20;;;;;;5002073;28;89622;-38
2023/02/14 04:48:45;;;;;;;;;;;0.30;78.20;;;;;;5005663;28;87101;-37
2023/02/14 04:51:11;;;;;;;;;;;0.30;78.20;;;;;;5001933;28;89209;-38
2023/02/14 04:53:39;;;;;;;;;;;0.30;78.10;;;;;;5002365;28;87155;-38
2023/02/14 04:56:05;;;;;;;;;;;0.30;78.70;;;;;;5002285;28;88765;-38
2023/02/14 04:58:30;;;;;;;;;;;0.30;78.20;;;;;;5002297;28;89529;-38
2023/02/14 05:00:56;;;;;;;;;;;0.30;78.20;;;;;;5002731;28;86296;-38
2023/02/14 05:03:21;;;;;;;;;;;0.30;78.20;;;;;;5002156;28;88398;-37
2023/02/14 05:05:47;;;;;;;;;;;0.30;78.30;;;;;;5001656;28;89824;-37
2023/02/14 05:08:13;;;;;;;;;;;0.30;78.30;;;;;;5001520;28;88084;-37
2023/02/14 05:10:39;;;;;;;;;;;0.30;78.30;;;;;;5004709;28;89709;-38
2023/02/14 05:13:04;;;;;;;;;;;0.30;78.30;;;;;;5017523;28;87174;-37
2023/02/14 05:15:30;;;;;;;;;;;0.30;78.30;;;;;;5002173;28;88777;-38
2023/02/14 05:18:00;;;;;;;;;;;0.30;78.40;;;;;;5001843;28;88646;-37
2023/02/14 05:20:26;;;;;;;;;;;0.30;78.40;;;;;;5001929;28;87119;-37
2023/02/14 05:22:51;;;;;;;;;;;0.30;78.30;;;;;;5002393;28;87850;-37
2023/02/14 05:25:17;;;;;;;;;;;0.30;78.30;;;;;;5002186;28;88521;-37
2023/02/14 05:27:42;;;;;;;;;;;0.30;78.30;;;;;;5001770;28;87269;-38
2023/02/14 05:30:08;;;;;;;;;;;0.30;78.30;;;;;;5001841;28;88667;-37
2023/02/14 05:32:34;;;;;;;;;;;0.30;78.40;;;;;;5003754;28;91035;-37
2023/02/14 05:34:59;;;;;;;;;;;0.30;78.30;;;;;;5001897;28;89655;-38
2023/02/14 05:37:25;;;;;;;;;;;0.30;78.30;;;;;;5001823;28;88096;-38
2023/02/14 05:39:50;;;;;;;;;;;0.30;78.40;;;;;;5002221;28;87141;-37
2023/02/14 05:42:16;;;;;;;;;;;0.20;78.40;;;;;;5001995;28;88676;-37
2023/02/14 05:44:41;;;;;;;;;;;0.30;78.50;;;;;;5001893;28;88829;-37
2023/02/14 05:47:07;;;;;;;;;;;0.20;78.30;;;;;;5005225;28;87071;-38
2023/02/14 05:49:33;;;;;;;;;;;0.30;78.40;;;;;;5005610;28;87226;-38
2023/02/14 05:51:59;;;;;;;;;;;0.30;78.30;;;;;;5005171;28;88242;-37
2023/02/14 05:54:24;;;;;;;;;;;0.30;78.30;;;;;;5008085;28;87064;-37
2023/02/14 05:56:50;;;;;;;;;;;0.30;78.30;;;;;;5004082;28;89492;-37
2023/02/14 05:59:15;;;;;;;;;;;0.30;78.30;;;;;;5005085;28;87060;-38
2023/02/14 06:01:41;;;;;;;;;;;0.30;78.30;;;;;;5005153;28;87815;-37
2023/02/14 06:04:06;;;;;;;;;;;0.30;78.30;;;;;;5004622;28;89593;-38
2023/02/14 06:06:32;;;;;;;;;;;0.30;78.40;;;;;;5004797;28;87009;-37
2023/02/14 06:08:58;;;;;;;;;;;0.30;78.40;;;;;;5005449;28;87080;-37
2023/02/14 06:11:24;;;;;;;;;;;0.30;78.40;;;;;;5004801;28;87285;-37
2023/02/14 06:13:49;;;;;;;;;;;0.30;78.30;;;;;;5005411;28;86394;-37
2023/02/14 06:16:15;;;;;;;;;;;0.30;78.40;;;;;;5007275;28;87254;-38
2023/02/14 06:18:40;;;;;;;;;;;0.30;78.40;;;;;;5004667;28;87199;-37
2023/02/14 06:21:06;;;;;;;;;;;0.30;78.30;;;;;;5004459;28;87806;-37
2023/02/14 06:23:31;;;;;;;;;;;0.30;78.40;;;;;;5004321;28;89615;-38
2023/02/14 06:25:57;;;;;;;;;;;0.30;78.30;;;;;;5004724;28;87515;-37
2023/02/14 06:28:22;;;;;;;;;;;0.30;78.40;;;;;;5005030;28;87487;-37
2023/02/14 06:30:48;;;;;;;;;;;0.30;78.40;;;;;;5004246;28;89783;-37
2023/02/14 06:33:13;;;;;;;;;;;0.30;78.40;;;;;;5004055;28;87101;-38
2023/02/14 06:35:39;;;;;;;;;;;0.30;78.40;;;;;;5004445;28;88579;-37
2023/02/14 06:38:04;;;;;;;;;;;0.30;78.40;;;;;;5007626;28;88635;-37
2023/02/14 06:40:30;;;;;;;;;;;0.30;78.50;;;;;;5004452;28;88167;-37
2023/02/14 06:42:55;;;;;;;;;;;0.30;78.40;;;;;;5004095;28;88023;-37
2023/02/14 06:45:21;;;;;;;;;;;0.30;78.40;;;;;;5003450;28;88016;-38
2023/02/14 06:47:46;;;;;;;;;;;0.30;78.40;;;;;;5004257;28;89570;-37
2023/02/14 06:50:12;;;;;;;;;;;0.30;78.40;;;;;;5003758;28;89376;-38
2023/02/14 06:52:37;;;;;;;;;;;0.30;78.40;;;;;;5004318;28;87198;-37
2023/02/14 06:55:03;;;;;;;;;;;0.30;79.10;;;;;;5003910;28;87727;-38
2023/02/14 06:57:28;;;;;;;;;;;0.30;78.60;;;;;;5006605;28;89297;-38
2023/02/14 06:59:54;;;;;;;;;;;0.20;78.60;;;;;;5004016;28;88575;-37
2023/02/14 07:02:19;;;;;;;;;;;0.30;78.60;;;;;;5004251;28;87821;-37
2023/02/14 07:04:45;;;;;;;;;;;0.30;78.60;;;;;;5003766;28;87220;-38
2023/02/14 07:07:10;;;;;;;;;;;0.30;78.60;;;;;;5003700;28;88708;-37
2023/02/14 07:09:36;;;;;;;;;;;0.20;78.60;;;;;;5002899;28;90664;-38
2023/02/14 07:12:01;;;;;;;;;;;0.30;78.60;;;;;;5003885;28;87181;-38
2023/02/14 07:14:27;;;;;;;;;;;0.30;78.60;;;;;;5003945;28;88929;-37
2023/02/14 07:16:52;;;;;;;;;;;0.30;78.60;;;;;;5003677;28;87680;-37
2023/02/14 07:19:18;;;;;;;;;;;0.30;78.60;;;;;;5006533;28;87748;-37
2023/02/14 07:21:43;;;;;;;;;;;0.30;78.50;;;;;;5003788;28;87162;-37
2023/02/14 07:24:09;;;;;;;;;;;0.30;78.40;;;;;;5003761;28;87165;-37
2023/02/14 07:26:34;;;;;;;;;;;0.30;78.50;;;;;;5004109;28;88810;-37
2023/02/14 07:29:00;;;;;;;;;;;0.30;78.50;;;;;;5003598;28;89839;-37
2023/02/14 07:31:25;;;;;;;;;;;0.30;78.50;;;;;;5003496;28;87448;-37
2023/02/14 07:33:51;;;;;;;;;;;0.30;78.50;;;;;;5003245;28;87965;-38
2023/02/14 07:36:16;;;;;;;;;;;0.30;78.40;;;;;;5003265;28;89214;-37
2023/02/14 07:38:42;;;;;;;;;;;0.30;78.40;;;;;;5003639;28;87466;-37
2023/02/14 07:41:07;;;;;;;;;;;0.30;78.50;;;;;;5006058;28;87811;-38
2023/02/14 07:43:33;;;;;;;;;;;0.30;78.50;;;;;;5003476;28;87203;-38
2023/02/14 07:45:59;;;;;;;;;;;0.30;78.50;;;;;;5003136;28;89298;-37
2023/02/14 07:48:25;;;;;;;;;;;0.30;78.50;;;;;;5002990;28;89276;-38
2023/02/14 07:50:50;;;;;;;;;;;0.30;78.60;;;;;;5003481;28;86454;-37
2023/02/14 07:53:16;;;;;;;;;;;0.30;78.60;;;;;;5003377;28;88144;-37
2023/02/14 07:55:41;;;;;;;;;;;0.30;78.50;;;;;;5002901;28;89651;-37
2023/02/14 07:58:07;;;;;;;;;;;0.30;78.50;;;;;;5002702;28;88226;-38
2023/02/14 08:00:32;;;;;;;;;;;0.30;78.40;;;;;;5003496;28;87473;-37
2023/02/14 08:02:57;;;;;;;;;;;0.30;78.50;;;;;;5005522;28;89559;-37
2023/02/14 08:05:23;;;;;;;;;;;0.30;78.60;;;;;;5002707;28;87394;-37
2023/02/14 08:07:49;;;;;;;;;;;0.30;78.60;;;;;;5001735;28;89761;-37
2023/02/14 08:10:15;;;;;;;;;;;0.30;78.60;;;;;;5003124;28;87120;-37
2023/02/14 08:12:58;;;;;;;;;;;0.30;78.60;;;;;;5002851;28;88742;-37
2023/02/14 08:18:09;;;;;;;;;;;0.30;78.60;;;;;;5003404;28;88168;-37
2023/02/14 08:20:34;;;;;;;;;;;0.30;78.80;;;;;;5003166;28;87080;-38
2023/02/14 08:23:00;;;;;;;;;;;0.30;78.80;;;;;;5001855;28;90198;-38
2023/02/14 08:25:26;;;;;;;;;;;0.30;78.60;;;;;;5005589;28;87126;-37
2023/02/14 08:27:51;;;;;;;;;;;0.30;78.90;;;;;;5002333;28;88658;-37
2023/02/14 08:30:17;;;;;;;;;;;0.30;78.80;;;;;;5002862;28;87194;-38
2023/02/14 08:32:42;;;;;;;;;;;0.30;78.90;;;;;;5002777;28;88819;-38
2023/02/14 08:35:08;;;;;;;;;;;0.30;78.90;;;;;;5002538;28;88210;-37
2023/02/14 08:37:33;;;;;;;;;;;0.30;78.90;;;;;;5002736;28;87144;-37
2023/02/14 08:39:59;;;;;;;;;;;0.30;78.80;;;;;;5003039;28;87695;-38
2023/02/14 08:42:24;;;;;;;;;;;0.40;78.90;;;;;;5002443;28;88068;-37
2023/02/14 08:44:50;;;;;;;;;;;0.40;79.00;;;;;;5002574;28;87131;-38
2023/02/14 08:47:15;;;;;;;;;;;0.30;79.00;;;;;;5004488;28;87969;-37
2023/02/14 08:49:41;;;;;;;;;;;0.30;79.20;;;;;;5002608;28;87160;-37
2023/02/14 08:52:06;;;;;;;;;;;0.30;79.00;;;;;;5002743;28;86941;-38
2023/02/14 08:54:32;;;;;;;;;;;0.40;78.90;;;;;;5002240;28;89575;-37
2023/02/14 08:56:57;;;;;;;;;;;0.40;79.10;;;;;;5002207;28;87067;-38
2023/02/14 08:59:23;;;;;;;;;;;0.40;79.20;;;;;;5002640;28;87428;-38
2023/02/14 09:01:48;;;;;;;;;;;0.40;79.00;;;;;;5001758;28;89292;-38
2023/02/14 09:04:14;;;;;;;;;;;0.40;79.20;;;;;;5002585;28;86446;-38
2023/02/14 09:06:39;;;;;;;;;;;0.40;79.30;;;;;;5004087;28;88249;-38
2023/02/14 09:09:05;;;;;;;;;;;0.40;79.30;;;;;;5002678;28;87116;-38
2023/02/14 09:11:31;;;;;;;;;;;0.40;79.30;;;;;;5001705;28;88618;-37
2023/02/14 09:13:57;;;;;;;;;;;0.40;79.20;;;;;;5001854;28;89746;-38
2023/02/14 09:16:23;;;;;;;;;;;0.40;79.30;;;;;;5002065;28;87065;-38
2023/02/14 09:18:49;;;;;;;;;;;0.40;79.30;;;;;;5002976;28;88697;-37
2023/02/14 09:21:16;;;;;;;;;;;0.40;79.20;;;;;;5005372;28;89399;-37
2023/02/14 09:23:41;;;;;;;;;;;0.40;79.30;;;;;;5005468;28;87132;-38
2023/02/14 09:26:07;;;;;;;;;;;0.40;79.40;;;;;;5005669;28;89263;-38
2023/02/14 09:28:33;;;;;;;;;;;0.40;79.30;;;;;;5008601;28;88995;-37
2023/02/14 09:31:06;;;;;;;;;;;0.40;79.30;;;;;;5005396;28;88344;-37
2023/02/14 09:33:32;;;;;;;;;;;0.40;79.30;;;;;;5005105;28;89122;-38
2023/02/14 09:38:42;;;;;;;;;;;0.40;79.30;;;;;;5004768;28;87643;-38
2023/02/14 09:41:08;;;;;;;;;;;0.40;79.30;;;;;;5005317;28;87269;-38
2023/02/14 09:43:36;;;;;;;;;;;0.40;79.30;;;;;;5005061;28;86988;-38
2023/02/14 09:46:03;;;;;;;;;;;0.40;79.30;;;;;;5004960;28;88098;-37
2023/02/14 09:48:31;;;;;;;;;;;0.40;79.40;;;;;;5004837;28;89355;-38
2023/02/14 09:50:58;;;;;;;;;;;0.40;79.30;;;;;;5008100;28;87200;-37
2023/02/14 09:53:24;;;;;;;;;;;0.40;79.40;;;;;;5005402;28;88016;-37
2023/02/14 09:55:59;;;;;;;;;;;0.40;79.40;;;;;;5005172;28;87064;-38
2023/02/14 09:58:47;;;;;;;;;;;0.40;79.50;;;;;;5005241;28;88546;-38
2023/02/14 10:01:44;;;;;;;;;;;0.40;79.40;;;;;;5004130;28;88981;-38
2023/02/14 10:04:13;;;;;;;;;;;0.40;79.40;;;;;;4981883;28;87141;-37
2023/02/14 10:06:48;;;;;;;;;;;0.40;79.60;;;;;;5004296;28;88577;-38
2023/02/14 10:09:13;;;;;;;;;;;0.40;79.50;;;;;;5004530;28;89294;-37
2023/02/14 10:11:39;;;;;;;;;;;0.40;79.50;;;;;;5004932;28;87145;-38
2023/02/14 10:14:10;;;;;;;;;;;0.40;79.50;;;;;;5007514;28;88037;-38
2023/02/14 10:16:36;;;;;;;;;;;0.40;79.60;;;;;;5004736;28;87186;-38
2023/02/14 10:19:03;;;;;;;;;;;0.40;79.70;;;;;;5005111;28;88796;-38
2023/02/14 10:21:38;;;;;;;;;;;0.50;79.70;;;;;;5004319;28;89342;-37
2023/02/14 10:24:16;;;;;;;;;;;0.50;79.50;;;;;;5004708;28;87128;-38
2023/02/14 10:26:43;;;;;;;;;;;0.50;79.50;;;;;;5004127;28;87963;-37
2023/02/14 10:29:16;;;;;;;;;;;0.50;79.50;;;;;;5004324;28;89435;-37
2023/02/14 10:31:54;;;;;;;;;;;0.40;79.60;;;;;;5003697;28;87205;-38
2023/02/14 10:34:40;;;;;;;;;;;0.50;79.80;;;;;;5004744;28;87675;-37
2023/02/14 10:37:12;;;;;;;;;;;0.50;79.60;;;;;;5007076;28;89382;-37
2023/02/14 10:39:40;;;;;;;;;;;0.50;79.70;;;;;;5004454;28;88895;-37
2023/02/14 10:42:05;;;;;;;;;;;0.50;79.70;;;;;;5003857;28;88444;-37
2023/02/14 10:44:31;;;;;;;;;;;0.50;79.80;;;;;;5004818;28;86408;-38
2023/02/14 10:47:07;;;;;;;;;;;0.50;79.80;;;;;;5004390;28;88137;-37
2023/02/14 10:49:35;;;;;;;;;;;0.40;79.90;;;;;;5003992;28;89436;-38
2023/02/14 10:52:21;;;;;;;;;;;0.40;79.80;;;;;;5003562;28;88055;-37
2023/02/14 10:54:52;;;;;;;;;;;0.50;79.80;;;;;;5003777;28;89592;-38
2023/02/14 10:57:22;;;;;;;;;;;0.50;80.10;;;;;;5003707;28;89629;-38
2023/02/14 11:00:01;;;;;;;;;;;0.40;79.90;;;;;;5006696;28;87058;-38
2023/02/14 11:02:47;;;;;;;;;;;0.40;79.80;;;;;;5003711;28;89774;-38
2023/02/14 11:05:22;;;;;;;;;;;0.40;79.90;;;;;;5003152;28;87162;-37
2023/02/14 11:07:47;;;;;;;;;;;0.50;80.00;;;;;;5003979;28;88633;-38
2023/02/14 11:10:13;;;;;;;;;;;0.50;80.00;;;;;;5004167;28;89023;-38
2023/02/14 11:12:40;;;;;;;;;;;0.50;79.80;;;;;;5019421;28;87131;-37
2023/02/14 11:15:20;;;;;;;;;;;0.50;79.90;;;;;;5003989;28;87042;-38
2023/02/14 11:17:46;;;;;;;;;;;0.50;79.80;;;;;;5002744;28;90682;-38
2023/02/14 11:20:18;;;;;;;;;;;0.50;79.70;;;;;;5006981;28;87124;-38
2023/02/14 11:22:44;;;;;;;;;;;0.50;79.80;;;;;;5003531;28;89151;-38
2023/02/14 11:25:30;;;;;;;;;;;0.50;79.90;;;;;;5003619;28;89016;-38
2023/02/14 11:28:03;;;;;;;;;;;0.60;79.70;;;;;;5003372;28;88940;-38
2023/02/14 11:30:32;;;;;;;;;;;0.60;79.70;;;;;;5003410;28;89291;-38
2023/02/14 11:32:58;;;;;;;;;;;0.50;79.70;;;;;;5003576;28;87228;-37
2023/02/14 11:35:27;;;;;;;;;;;0.50;79.90;;;;;;5004134;28;88730;-37
2023/02/14 11:37:54;;;;;;;;;;;0.50;79.80;;;;;;5003028;28;89776;-37
2023/02/14 11:40:25;;;;;;;;;;;0.60;80.00;;;;;;5003889;28;87112;-38
2023/02/14 11:42:50;;;;;;;;;;;0.60;79.70;;;;;;5005014;28;88932;-37
2023/02/14 11:45:28;;;;;;;;;;;0.50;79.80;;;;;;5003213;28;87151;-38
2023/02/14 11:48:06;;;;;;;;;;;0.60;79.80;;;;;;5003414;28;89025;-37
2023/02/14 11:50:31;;;;;;;;;;;0.60;79.90;;;;;;5003125;28;88194;-37
2023/02/14 11:52:58;;;;;;;;;;;0.60;79.80;;;;;;5003157;28;87150;-38
2023/02/14 11:55:28;;;;;;;;;;;0.60;79.70;;;;;;5003025;28;87791;-37
2023/02/14 11:57:54;;;;;;;;;;;0.60;80.00;;;;;;5002791;28;88524;-37
2023/02/14 12:00:20;;;;;;;;;;;0.60;80.00;;;;;;5003723;28;86403;-38
2023/02/14 12:02:47;;;;;;;;;;;0.60;79.80;;;;;;5003298;28;88056;-37
2023/02/14 12:05:19;;;;;;;;;;;0.60;79.80;;;;;;5005177;28;89223;-37
2023/02/14 12:07:45;;;;;;;;;;;0.60;79.80;;;;;;5002420;28;88709;-37
2023/02/14 12:10:16;;;;;;;;;;;0.60;79.90;;;;;;5002632;28;89302;-37
2023/02/14 12:12:48;;;;;;;;;;;0.60;79.80;;;;;;5002863;28;87136;-37
2023/02/14 12:15:25;;;;;;;;;;;0.60;79.90;;;;;;5003057;28;88595;-38
2023/02/14 12:17:54;;;;;;;;;;;0.60;79.90;;;;;;5002545;28;89409;-37
2023/02/14 12:20:25;;;;;;;;;;;0.60;79.80;;;;;;5002652;28;87264;-38
2023/02/14 12:22:54;;;;;;;;;;;0.60;79.70;;;;;;5002978;28;88857;-37
2023/02/14 12:25:23;;;;;;;;;;;0.60;79.90;;;;;;5003131;28;87308;-38
2023/02/14 12:27:48;;;;;;;;;;;0.60;79.90;;;;;;5005910;28;87126;-38
2023/02/14 12:30:19;;;;;;;;;;;0.60;79.70;;;;;;5002225;28;89476;-38
2023/02/14 12:32:49;;;;;;;;;;;0.60;79.80;;;;;;5002260;28;88126;-38
2023/02/14 12:35:16;;;;;;;;;;;0.60;79.80;;;;;;5002779;28;87304;-38
2023/02/14 12:37:45;;;;;;;;;;;0.60;80.00;;;;;;5002225;28;89147;-38
2023/02/14 12:40:15;;;;;;;;;;;0.60;79.90;;;;;;5002685;28;87242;-38
2023/02/14 12:42:41;;;;;;;;;;;0.60;79.80;;;;;;5002748;28;87205;-38
2023/02/14 12:45:06;;;;;;;;;;;0.60;79.90;;;;;;5001947;28;88401;-38
2023/02/14 12:47:35;;;;;;;;;;;0.60;80.00;;;;;;5002230;28;87208;-38
2023/02/14 12:50:13;;;;;;;;;;;0.60;80.00;;;;;;5005647;28;87591;-37
2023/02/14 12:52:57;;;;;;;;;;;0.70;80.10;;;;;;5002297;28;87207;-38
2023/02/14 12:55:38;;;;;;;;;;;0.60;80.00;;;;;;5002150;28;88513;-38
2023/02/14 12:58:03;;;;;;;;;;;0.60;80.10;;;;;;5001266;28;90808;-38
2023/02/14 13:00:30;;;;;;;;;;;0.70;80.00;;;;;;5002245;28;87009;-38
2023/02/14 13:03:11;;;;;;;;;;;0.60;79.80;;;;;;5002297;28;88580;-37
2023/02/14 13:05:55;;;;;;;;;;;0.60;80.00;;;;;;5001591;28;89509;-37
2023/02/14 13:08:36;;;;;;;;;;;0.60;79.90;;;;;;5002245;28;87275;-37
2023/02/14 13:11:01;;;;;;;;;;;0.70;80.00;;;;;;5004683;28;88743;-37
2023/02/14 13:13:30;;;;;;;;;;;0.70;80.00;;;;;;5002434;28;87105;-38
2023/02/14 13:16:01;;;;;;;;;;;0.60;79.90;;;;;;5002625;28;88896;-37
2023/02/14 13:18:45;;;;;;;;;;;0.70;79.90;;;;;;5001800;28;89436;-38
2023/02/14 13:21:14;;;;;;;;;;;0.70;79.90;;;;;;5002061;28;87175;-37
2023/02/14 13:23:41;;;;;;;;;;;0.70;80.00;;;;;;5001680;28;88108;-38
2023/02/14 13:26:11;;;;;;;;;;;0.60;80.10;;;;;;5001438;28;88459;-38
2023/02/14 13:28:37;;;;;;;;;;;0.60;80.10;;;;;;5001927;28;87129;-38
2023/02/14 13:31:03;;;;;;;;;;;0.70;80.20;;;;;;5001859;28;88678;-38
2023/02/14 13:33:35;;;;;;;;;;;0.70;80.30;;;;;;5004687;28;89718;-37
2023/02/14 13:36:02;;;;;;;;;;;0.70;80.10;;;;;;5001729;28;88977;-38
2023/02/14 13:38:30;;;;;;;;;;;0.70;80.10;;;;;;5001585;28;89095;-38
2023/02/14 13:40:56;;;;;;;;;;;0.70;80.20;;;;;;5002351;28;86305;-38
2023/02/14 13:43:40;;;;;;;;;;;0.70;80.20;;;;;;5001864;28;88300;-38
2023/02/14 13:46:06;;;;;;;;;;;0.70;80.30;;;;;;5001150;28;87258;-38
2023/02/14 13:48:31;;;;;;;;;;;0.70;80.30;;;;;;5001357;28;88038;-38
2023/02/14 13:50:58;;;;;;;;;;;0.70;80.20;;;;;;5001525;28;89715;-38
2023/02/14 13:53:43;;;;;;;;;;;0.70;80.20;;;;;;5001546;28;88230;-38
2023/02/14 13:56:12;;;;;;;;;;;0.70;80.20;;;;;;5004637;28;87087;-37
2023/02/14 13:58:46;;;;;;;;;;;0.70;80.10;;;;;;5000958;28;89371;-38
2023/02/14 14:01:35;;;;;;;;;;;0.70;80.20;;;;;;5001948;28;87439;-38
2023/02/14 14:04:02;;;;;;;;;;;0.70;80.30;;;;;;4995796;28;87626;-37
2023/02/14 14:06:28;;;;;;;;;;;0.70;80.30;;;;;;5002983;28;88742;-38
2023/02/14 14:08:55;;;;;;;;;;;0.70;80.30;;;;;;5004918;28;86914;-37
2023/02/14 14:11:21;;;;;;;;;;;0.70;80.30;;;;;;5004675;28;88661;-37
2023/02/14 14:13:49;;;;;;;;;;;0.70;80.30;;;;;;5003975;28;90459;-38
2023/02/14 14:16:18;;;;;;;;;;;0.70;80.30;;;;;;5004683;28;87168;-38
2023/02/14 14:18:43;;;;;;;;;;;0.70;80.30;;;;;;5007403;28;88807;-38
2023/02/14 14:21:21;;;;;;;;;;;0.70;80.20;;;;;;5004574;28;87128;-38
2023/02/14 14:24:01;;;;;;;;;;;0.70;80.30;;;;;;5004567;28;88634;-38
2023/02/14 14:26:29;;;;;;;;;;;0.70;80.20;;;;;;5004610;28;87933;-38
2023/02/14 14:28:55;;;;;;;;;;;0.70;80.30;;;;;;5004675;28;87100;-38
2023/02/14 14:31:20;;;;;;;;;;;0.70;80.30;;;;;;5005251;28;87436;-38
2023/02/14 14:33:55;;;;;;;;;;;0.70;80.30;;;;;;5004534;28;87888;-38
2023/02/14 14:36:21;;;;;;;;;;;0.70;80.40;;;;;;5004504;28;87223;-38
2023/02/14 14:38:48;;;;;;;;;;;0.70;80.30;;;;;;5004162;28;87901;-38
2023/02/14 14:41:14;;;;;;;;;;;0.70;80.40;;;;;;5006970;28;88252;-38
2023/02/14 14:43:40;;;;;;;;;;;0.70;80.30;;;;;;5004285;28;88770;-38
2023/02/14 14:46:13;;;;;;;;;;;0.70;80.40;;;;;;5003872;28;88019;-38
2023/02/14 14:48:38;;;;;;;;;;;0.70;80.40;;;;;;5004539;28;87113;-37
2023/02/14 14:51:08;;;;;;;;;;;0.70;81.00;;;;;;5004146;28;87038;-38
2023/02/14 14:53:40;;;;;;;;;;;0.70;80.40;;;;;;5004045;28;89408;-38